Terminal Aerodrome Forecast
Issued by NWS Twin Cities, MN

Home | Current Version | Previous Version | Graphics & Text | Print | Product List | Glossary On
Versions: 1 2 3 4 5 6 7 8 9 10 11 12 13 14 15 16 17 18 19 20 21 22 23 24 25 26 27
445
FTUS43 KMPX 162339
TAFMSP
TAF
KMSP 162339Z 1700/1806 19010KT P6SM BKN250
     FM171000 20007KT P6SM VCSH OVC050
      TEMPO 1711/1715 3SM -SN BR OVC030
     FM171500 25010KT P6SM SCT150
     FM180000 29006KT P6SM SCT150=

USA.gov is the U.S. government's official web portal to all federal, state and local government web resources and services.